Time;durP1;ratioP1;P1;durP2;ratioP2;P2;SDS_P1;SDS_P2;PMS_P1;PMS_P2;Temp;Humidity;BMP_temperature;BMP_pressure;BME280_temperature;BME280_humidity;BME280_pressure;Samples;Min_cycle;Max_cycle;Signal;HPM_P1;HPM_P2
2023/06/29 00:00:29;;;;;;;4.28;2.45;;;;;;;26.35;35.46;99681.28;4377629;32;33851;-69
2023/06/29 00:02:57;;;;;;;3.78;2.12;;;;;;;26.33;35.52;99686.16;4377491;32;34053;-69
2023/06/29 00:05:25;;;;;;;5.40;2.00;;;;;;;26.33;35.46;99679.84;4377823;32;34800;-69
2023/06/29 00:07:52;;;;;;;4.82;2.30;;;;;;;26.32;35.49;99672.72;4377525;32;33149;-69
2023/06/29 00:10:20;;;;;;;4.68;1.90;;;;;;;26.31;35.52;99680.09;4377452;32;33958;-70
2023/06/29 00:12:48;;;;;;;3.45;1.80;;;;;;;26.30;35.53;99677.59;4377597;32;33909;-70
2023/06/29 00:15:15;;;;;;;4.00;1.98;;;;;;;26.28;35.55;99680.59;4377540;32;34022;-69
2023/06/29 00:17:47;;;;;;;4.28;2.12;;;;;;;26.28;35.57;99679.78;4377568;32;33780;-70
2023/06/29 00:20:14;;;;;;;5.12;2.25;;;;;;;26.28;35.55;99682.50;4377541;32;33719;-71
2023/06/29 00:22:47;;;;;;;4.70;2.10;;;;;;;26.26;35.54;99685.50;4377663;32;33968;-69
2023/06/29 00:25:16;;;;;;;4.85;2.15;;;;;;;26.24;35.59;99679.44;4377357;32;34162;-71
2023/06/29 00:27:44;;;;;;;4.78;1.98;;;;;;;26.23;35.61;99680.50;4377582;32;33699;-71
2023/06/29 00:30:13;;;;;;;4.62;2.03;;;;;;;26.24;35.60;99676.69;4377491;32;33644;-71
2023/06/29 00:32:40;;;;;;;2.60;1.65;;;;;;;26.22;35.62;99678.03;4377272;32;33527;-70
2023/06/29 00:35:12;;;;;;;4.62;1.83;;;;;;;26.20;35.64;99678.25;4364160;32;34357;-69
2023/06/29 00:37:42;;;;;;;3.90;2.37;;;;;;;26.19;35.63;99680.16;4377094;32;33709;-68
2023/06/29 00:40:10;;;;;;;4.18;1.83;;;;;;;26.20;35.59;99681.00;4376838;32;33915;-69
2023/06/29 00:42:37;;;;;;;3.75;1.83;;;;;;;26.19;35.54;99680.16;4377243;32;33858;-69
2023/06/29 00:45:05;;;;;;;4.95;2.05;;;;;;;26.19;35.53;99679.34;4377185;32;34173;-68
2023/06/29 00:47:36;;;;;;;4.18;2.20;;;;;;;26.17;35.44;99676.88;4364400;32;34524;-68
2023/06/29 00:50:05;;;;;;;4.37;2.10;;;;;;;26.17;35.43;99681.50;4377286;32;34538;-68
2023/06/29 00:52:32;;;;;;;5.68;2.03;;;;;;;26.15;35.45;99679.00;4363681;32;33742;-67
2023/06/29 00:55:00;;;;;;;3.55;1.98;;;;;;;26.14;35.46;99671.88;4363873;32;34133;-67
2023/06/29 00:57:29;;;;;;;5.47;1.98;;;;;;;26.14;35.51;99665.59;4351516;32;34341;-67
2023/06/29 01:00:00;;;;;;;8.53;2.03;;;;;;;26.13;35.52;99667.50;4349118;32;33971;-67
2023/06/29 01:02:35;;;;;;;8.82;2.53;;;;;;;26.13;35.52;99670.22;4362300;32;34016;-68
2023/06/29 01:05:04;;;;;;;4.32;2.20;;;;;;;26.11;35.58;99666.94;4349766;32;34061;-68
2023/06/29 01:07:40;;;;;;;4.53;1.90;;;;;;;26.12;35.62;99667.75;4349119;32;33815;-68
2023/06/29 01:10:08;;;;;;;4.43;1.92;;;;;;;26.10;35.62;99664.44;4348840;32;33598;-70
2023/06/29 01:12:36;;;;;;;6.50;2.15;;;;;;;26.09;35.56;99660.88;4348599;32;33887;-70
2023/06/29 01:15:04;;;;;;;4.57;1.85;;;;;;;26.08;35.56;99661.94;4362132;32;34925;-67
2023/06/29 01:17:31;;;;;;;4.45;2.15;;;;;;;26.07;35.61;99665.75;4348784;32;33777;-67
2023/06/29 01:19:59;;;;;;;5.10;1.92;;;;;;;26.07;35.63;99651.28;4348588;32;34720;-67
2023/06/29 01:22:29;;;;;;;4.57;2.08;;;;;;;26.06;35.66;99657.78;4348797;32;33989;-67
2023/06/29 01:24:59;;;;;;;3.90;1.70;;;;;;;26.04;35.66;99657.22;4348988;32;34968;-67
2023/06/29 01:27:30;;;;;;;2.95;1.80;;;;;;;26.05;35.64;99650.66;4349155;32;33927;-69
2023/06/29 01:30:01;;;;;;;5.03;2.00;;;;;;;26.03;35.64;99659.13;4348698;32;34786;-68
2023/06/29 01:32:35;;;;;;;3.37;1.95;;;;;;;26.03;35.65;99661.88;4361618;32;34805;-70
2023/06/29 01:35:03;;;;;;;3.42;1.80;;;;;;;26.03;35.66;99661.88;4362294;32;33883;-69
2023/06/29 01:37:49;;;;;;;3.17;1.80;;;;;;;26.02;35.70;99657.47;4348771;32;34407;-70
2023/06/29 01:40:17;;;;;;;5.60;2.12;;;;;;;26.02;35.67;99659.34;4337735;32;33931;-70
2023/06/29 01:42:45;;;;;;;4.57;2.28;;;;;;;26.00;35.69;99656.88;4336361;32;34926;-67
2023/06/29 01:45:13;;;;;;;3.47;1.80;;;;;;;26.01;35.68;99663.16;4348478;32;34739;-67
2023/06/29 01:47:40;;;;;;;4.10;2.15;;;;;;;25.99;35.70;99654.41;4348520;32;33615;-67
2023/06/29 01:50:10;;;;;;;3.47;1.73;;;;;;;25.99;35.71;99649.75;4362063;32;34050;-67
2023/06/29 01:52:37;;;;;;;5.35;2.12;;;;;;;25.99;35.67;99652.50;4348357;32;34000;-69
2023/06/29 01:55:06;;;;;;;7.53;2.20;;;;;;;25.97;35.71;99651.91;4348521;32;34343;-68
2023/06/29 01:57:34;;;;;;;6.28;2.20;;;;;;;25.97;35.74;99648.34;4361965;32;33534;-67
2023/06/29 02:00:03;;;;;;;4.95;2.40;;;;;;;25.97;35.75;99651.06;4361683;32;33613;-68
2023/06/29 02:02:40;;;;;;;4.45;2.05;;;;;;;25.95;35.79;99646.69;4361888;32;33994;-67
2023/06/29 02:05:08;;;;;;;5.65;2.20;;;;;;;25.95;35.77;99649.41;4362053;32;34239;-67
2023/06/29 02:07:35;;;;;;;4.78;1.92;;;;;;;25.95;35.81;99662.25;4361949;32;34340;-67
2023/06/29 02:10:03;;;;;;;4.60;2.45;;;;;;;25.96;35.80;99650.25;4361872;32;34082;-66
2023/06/29 02:12:31;;;;;;;5.15;2.33;;;;;;;25.95;35.82;99657.63;4361717;32;35335;-67
2023/06/29 02:14:58;;;;;;;5.43;2.47;;;;;;;25.94;35.82;99650.50;4348405;32;34499;-68
2023/06/29 02:17:26;;;;;;;4.72;2.37;;;;;;;25.95;35.85;99651.31;4361717;32;34163;-70
2023/06/29 02:19:54;;;;;;;4.40;2.37;;;;;;;25.94;35.89;99646.94;4361593;32;33897;-69
2023/06/29 02:22:22;;;;;;;5.10;2.50;;;;;;;25.93;35.93;99659.78;4361774;32;33693;-69
2023/06/29 02:24:50;;;;;;;6.35;2.70;;;;;;;25.94;35.97;99649.66;4361959;32;34886;-70
2023/06/29 02:27:18;;;;;;;4.12;2.25;;;;;;;25.93;35.95;99656.22;4361596;32;33287;-67
2023/06/29 02:29:45;;;;;;;4.75;2.40;;;;;;;25.93;35.97;99651.59;4361615;32;34686;-67
2023/06/29 02:32:13;;;;;;;6.45;2.35;;;;;;;25.93;35.96;99648.03;4361814;32;34034;-67
2023/06/29 02:34:41;;;;;;;5.10;2.55;;;;;;;25.91;35.98;99645.50;4361382;32;34883;-67
2023/06/29 02:37:08;;;;;;;5.18;2.67;;;;;;;25.91;35.99;99650.97;4361912;32;34325;-70
2023/06/29 02:39:36;;;;;;;5.68;3.08;;;;;;;25.90;36.01;99645.78;4361546;32;33935;-67
2023/06/29 02:42:04;;;;;;;8.57;2.60;;;;;;;25.90;36.04;99645.78;4361390;32;33841;-67
2023/06/29 02:44:31;;;;;;;3.78;2.05;;;;;;;25.89;36.03;99647.69;4361402;32;34743;-67
2023/06/29 02:46:59;;;;;;;5.00;2.30;;;;;;;25.90;36.00;99648.50;4361505;32;33767;-67
2023/06/29 02:49:28;;;;;;;4.95;2.35;;;;;;;25.88;36.00;99651.50;4361587;32;33758;-67
2023/06/29 02:51:55;;;;;;;3.83;1.95;;;;;;;25.89;36.01;99652.31;4361668;32;34639;-67
2023/06/29 02:54:23;;;;;;;5.28;2.20;;;;;;;25.89;36.04;99657.78;4361310;32;34229;-67
2023/06/29 02:56:52;;;;;;;4.10;2.10;;;;;;;25.88;36.03;99654.22;4347944;32;34426;-67
2023/06/29 02:59:20;;;;;;;4.43;2.17;;;;;;;25.89;36.02;99657.78;4347877;32;33856;-67
2023/06/29 03:01:48;;;;;;;6.85;2.47;;;;;;;25.86;36.05;99653.62;4362859;32;34178;-70
2023/06/29 03:04:16;;;;;;;4.35;1.90;;;;;;;25.87;36.04;99655.28;4366254;32;34890;-67
2023/06/29 03:06:43;;;;;;;3.47;1.77;;;;;;;25.88;36.09;99661.56;4366500;32;33468;-67
2023/06/29 03:09:11;;;;;;;8.25;2.10;;;;;;;25.87;36.09;99662.66;4366472;32;34681;-67
2023/06/29 03:11:39;;;;;;;3.72;1.70;;;;;;;25.86;36.09;99661.81;4366065;32;33690;-67
2023/06/29 03:14:06;;;;;;;4.55;2.00;;;;;;;25.86;36.10;99658.28;4352611;32;34998;-67
2023/06/29 03:16:34;;;;;;;6.62;2.08;;;;;;;25.85;36.10;99662.91;4366079;32;33769;-67
2023/06/29 03:19:02;;;;;;;5.47;1.90;;;;;;;25.85;36.12;99656.63;4365946;32;34383;-67
2023/06/29 03:21:29;;;;;;;4.22;1.87;;;;;;;25.85;36.13;99660.19;4366040;32;34142;-68
2023/06/29 03:23:57;;;;;;;4.22;1.98;;;;;;;25.84;36.12;99664.00;4365913;32;33974;-67
2023/06/29 03:26:24;;;;;;;3.40;1.83;;;;;;;25.86;36.13;99658.28;4365941;32;33257;-67
2023/06/29 03:28:52;;;;;;;3.25;1.75;;;;;;;25.85;36.12;99656.63;4365917;32;34616;-68
2023/06/29 03:31:19;;;;;;;4.30;1.90;;;;;;;25.86;36.12;99659.09;4365751;32;34080;-68
2023/06/29 03:33:47;;;;;;;5.03;2.00;;;;;;;25.84;36.13;99665.91;4365756;32;35653;-70
2023/06/29 03:36:15;;;;;;;4.07;1.55;;;;;;;25.85;36.12;99662.09;4365847;32;33199;-69
2023/06/29 03:38:42;;;;;;;6.72;1.92;;;;;;;25.84;36.10;99669.47;4365659;32;33575;-69
2023/06/29 03:41:10;;;;;;;4.82;1.90;;;;;;;25.84;36.12;99664.00;4365689;32;34162;-69
2023/06/29 03:43:38;;;;;;;4.12;1.83;;;;;;;25.83;36.12;99662.31;4365545;32;34908;-69
2023/06/29 03:46:05;;;;;;;3.12;1.73;;;;;;;25.83;36.12;99659.56;4365837;32;33622;-70
2023/06/29 03:48:33;;;;;;;2.97;1.83;;;;;;;25.82;36.13;99657.94;4365651;32;34081;-68
2023/06/29 03:51:01;;;;;;;3.08;1.65;;;;;;;25.82;36.15;99657.09;4365479;32;33767;-69
2023/06/29 03:53:28;;;;;;;5.40;2.05;;;;;;;25.82;36.15;99657.09;4365522;32;34855;-68
2023/06/29 03:55:56;;;;;;;3.25;1.70;;;;;;;25.82;36.15;99665.31;4365539;32;33500;-69
2023/06/29 03:58:23;;;;;;;4.22;1.90;;;;;;;25.81;36.16;99652.72;4357049;32;33852;-69
2023/06/29 04:00:51;;;;;;;3.85;1.58;;;;;;;25.81;36.15;99660.91;4380248;32;34788;-69
2023/06/29 04:03:19;;;;;;;4.60;1.92;;;;;;;25.81;36.19;99660.91;4380427;32;33641;-69
2023/06/29 04:05:46;;;;;;;2.62;1.52;;;;;;;25.80;36.12;99664.72;4380298;32;34210;-70
2023/06/29 04:08:14;;;;;;;3.53;1.70;;;;;;;25.81;36.13;99671.84;4380149;32;33861;-69
2023/06/29 04:10:42;;;;;;;5.40;1.87;;;;;;;25.80;36.13;99670.19;4380349;32;33544;-69
2023/06/29 04:13:09;;;;;;;4.62;1.87;;;;;;;25.80;36.12;99665.56;4379305;32;34957;-70
2023/06/29 04:15:37;;;;;;;4.50;1.87;;;;;;;25.80;36.15;99668.28;4377436;32;33566;-69
2023/06/29 04:18:04;;;;;;;5.35;1.90;;;;;;;25.80;36.12;99660.09;4377547;32;33984;-70
2023/06/29 04:20:32;;;;;;;4.80;1.87;;;;;;;25.81;36.12;99660.91;4377676;32;34037;-70
2023/06/29 04:23:00;;;;;;;5.40;1.90;;;;;;;25.79;36.10;99663.06;4377305;32;34214;-69
2023/06/29 04:25:28;;;;;;;3.75;2.00;;;;;;;25.79;36.11;99665.81;4377511;32;33507;-69
2023/06/29 04:27:55;;;;;;;4.97;1.87;;;;;;;25.79;36.13;99658.44;4377470;32;34868;-68
2023/06/29 04:30:23;;;;;;;4.20;2.10;;;;;;;25.80;36.12;99651.88;4377458;32;34491;-69
2023/06/29 04:32:51;;;;;;;3.50;2.00;;;;;;;25.77;36.09;99652.38;4377357;32;34129;-69
2023/06/29 04:35:18;;;;;;;3.22;1.73;;;;;;;25.77;36.10;99648.81;4377434;32;33818;-69
2023/06/29 04:37:46;;;;;;;2.62;1.50;;;;;;;25.78;36.06;99654.03;4377253;32;33861;-70
2023/06/29 04:40:14;;;;;;;4.47;1.75;;;;;;;25.78;36.09;99664.13;4377560;32;34782;-68
2023/06/29 04:42:47;;;;;;;4.28;1.70;;;;;;;25.78;36.10;99667.69;4377036;32;33915;-69
2023/06/29 04:45:19;;;;;;;5.37;1.92;;;;;;;25.78;36.09;99662.22;4377222;32;33634;-69
2023/06/29 04:47:49;;;;;;;3.45;1.50;;;;;;;25.77;36.07;99657.84;4377364;32;33572;-70
2023/06/29 04:50:24;;;;;;;4.12;1.75;;;;;;;25.78;36.06;99666.84;4377233;32;34143;-70
2023/06/29 04:52:55;;;;;;;4.30;1.83;;;;;;;25.77;36.05;99663.31;4377406;32;34194;-69
2023/06/29 04:55:23;;;;;;;4.28;2.10;;;;;;;25.77;36.01;99659.75;4374647;32;33595;-67
2023/06/29 04:57:51;;;;;;;4.30;2.00;;;;;;;25.75;36.00;99651.78;4374338;32;34707;-67
2023/06/29 05:00:20;;;;;;;5.43;2.10;;;;;;;25.74;35.98;99661.06;4377296;32;34013;-67
2023/06/29 05:02:47;;;;;;;5.05;1.95;;;;;;;25.73;35.77;99658.53;4383602;32;34272;-67
2023/06/29 05:05:16;;;;;;;4.18;1.65;;;;;;;25.72;35.73;99663.19;4376967;32;33437;-67
2023/06/29 05:07:43;;;;;;;5.07;2.00;;;;;;;25.72;35.80;99660.44;4377054;32;33874;-67
2023/06/29 05:10:11;;;;;;;5.18;2.05;;;;;;;25.72;35.69;99654.16;4377150;32;33314;-67
2023/06/29 05:12:38;;;;;;;4.62;1.95;;;;;;;25.71;35.61;99650.59;4377183;32;34089;-67
2023/06/29 05:15:06;;;;;;;6.22;2.17;;;;;;;25.70;35.52;99657.97;4390136;32;33584;-67
2023/06/29 05:17:34;;;;;;;6.93;2.00;;;;;;;25.69;35.50;99653.59;4392142;32;33952;-67
2023/06/29 05:20:03;;;;;;;7.05;2.05;;;;;;;25.70;35.51;99654.41;4391814;32;34726;-69
2023/06/29 05:22:32;;;;;;;4.47;2.10;;;;;;;25.68;35.57;99646.44;4392110;32;34086;-68
2023/06/29 05:25:00;;;;;;;7.45;2.33;;;;;;;25.66;35.40;99648.59;4391475;32;33676;-67
2023/06/29 05:27:28;;;;;;;4.82;1.77;;;;;;;25.66;35.34;99647.78;4392109;32;33357;-68
2023/06/29 05:29:55;;;;;;;6.60;2.40;;;;;;;25.63;35.42;99651.81;4392040;32;34714;-69
2023/06/29 05:32:23;;;;;;;5.30;2.20;;;;;;;25.63;35.35;99657.28;4392042;32;33839;-67
2023/06/29 05:34:50;;;;;;;5.72;2.20;;;;;;;25.61;35.39;99656.69;4392256;32;33530;-68
2023/06/29 05:37:18;;;;;;;4.37;2.28;;;;;;;25.59;35.44;99652.53;4392034;32;34302;-68
2023/06/29 05:39:46;;;;;;;5.43;2.17;;;;;;;25.57;35.42;99658.25;4380393;32;33526;-67
2023/06/29 05:42:14;;;;;;;5.70;2.45;;;;;;;25.55;35.43;99654.94;4376937;32;34617;-68
2023/06/29 05:44:41;;;;;;;3.78;2.10;;;;;;;25.53;35.48;99665.28;4376930;32;34511;-67
2023/06/29 05:47:09;;;;;;;7.70;2.17;;;;;;;25.53;35.49;99661.72;4376837;32;34019;-67
2023/06/29 05:49:37;;;;;;;4.55;2.12;;;;;;;25.50;35.60;99665.75;4377721;32;34764;-69
2023/06/29 05:52:04;;;;;;;10.15;2.50;;;;;;;25.50;35.66;99670.41;4391877;32;34932;-69
2023/06/29 05:54:32;;;;;;;7.68;2.10;;;;;;;25.50;35.74;99662.19;4391860;32;34670;-68
2023/06/29 05:57:00;;;;;;;4.68;2.22;;;;;;;25.50;35.84;99668.50;4392023;32;33804;-70
2023/06/29 05:59:29;;;;;;;4.25;2.35;;;;;;;25.51;35.84;99663.84;4354288;32;34964;-71
2023/06/29 06:01:58;;;;;;;6.30;2.37;;;;;;;25.49;35.89;99668.75;4376868;32;34240;-71
2023/06/29 06:04:26;;;;;;;10.48;2.40;;;;;;;25.49;35.92;99664.09;4376802;32;33597;-71
2023/06/29 06:06:53;;;;;;;5.97;2.40;;;;;;;25.49;35.94;99666.84;4376817;32;33554;-67
2023/06/29 06:09:21;;;;;;;4.60;2.10;;;;;;;25.49;35.94;99669.56;4377027;32;33667;-68
2023/06/29 06:11:48;;;;;;;6.30;2.30;;;;;;;25.50;35.92;99667.66;4363348;32;34982;-67
2023/06/29 06:14:16;;;;;;;5.22;2.08;;;;;;;25.48;36.00;99670.66;4376867;32;33668;-69
2023/06/29 06:16:44;;;;;;;5.00;1.73;;;;;;;25.49;36.00;99669.56;4376451;32;34018;-72
2023/06/29 06:19:11;;;;;;;7.50;2.72;;;;;;;25.48;36.03;99669.81;4376556;32;35047;-71
2023/06/29 06:21:39;;;;;;;6.75;2.45;;;;;;;25.47;36.07;99669.00;4376625;32;35015;-72
2023/06/29 06:24:06;;;;;;;5.80;2.40;;;;;;;25.46;36.08;99667.34;4376574;32;33795;-70
2023/06/29 06:26:34;;;;;;;9.02;2.28;;;;;;;25.47;36.15;99671.72;4376739;32;34046;-69
2023/06/29 06:29:03;;;;;;;4.85;2.10;;;;;;;25.48;36.16;99665.19;4376681;32;33931;-70
2023/06/29 06:31:31;;;;;;;4.97;1.83;;;;;;;25.51;36.17;99669.31;4376481;32;34367;-70
2023/06/29 06:34:02;;;;;;;7.12;2.30;;;;;;;25.50;36.21;99663.03;4376755;32;33262;-70
2023/06/29 06:36:30;;;;;;;4.93;2.15;;;;;;;25.50;36.30;99663.03;4361758;32;33690;-69
2023/06/29 06:38:58;;;;;;;8.50;2.12;;;;;;;25.51;36.41;99667.44;4376362;32;35361;-71
2023/06/29 06:41:26;;;;;;;5.70;1.90;;;;;;;25.53;36.43;99670.75;4376479;32;34188;-67
2023/06/29 06:43:54;;;;;;;5.65;2.05;;;;;;;25.55;36.47;99667.75;4362719;32;33695;-68
2023/06/29 06:46:21;;;;;;;5.62;2.15;;;;;;;25.55;36.50;99663.13;4376285;32;33962;-70
2023/06/29 06:48:49;;;;;;;6.55;2.03;;;;;;;25.57;36.45;99665.63;4372672;32;33714;-70
2023/06/29 06:51:16;;;;;;;7.43;2.10;;;;;;;25.59;36.45;99663.47;4364568;32;34462;-69
2023/06/29 06:53:44;;;;;;;4.20;1.80;;;;;;;25.60;36.47;99657.78;4364508;32;33551;-64
2023/06/29 06:56:12;;;;;;;3.45;1.95;;;;;;;25.62;36.48;99655.63;4372641;32;33485;-65
2023/06/29 06:58:40;;;;;;;5.87;2.05;;;;;;;25.64;36.49;99660.84;4376263;32;33899;-64
2023/06/29 07:01:07;;;;;;;4.45;1.90;;;;;;;25.66;36.50;99664.16;4375696;32;33985;-65
2023/06/29 07:03:35;;;;;;;5.75;2.05;;;;;;;25.68;36.50;99667.47;4376040;32;33600;-65
2023/06/29 07:06:03;;;;;;;5.68;1.80;;;;;;;25.69;36.56;99680.06;4376164;32;34527;-65
2023/06/29 07:08:32;;;;;;;5.82;2.40;;;;;;;25.69;36.57;99675.44;4376234;32;34610;-70
2023/06/29 07:11:00;;;;;;;5.70;1.80;;;;;;;25.73;36.58;99675.75;4375677;32;34062;-71
2023/06/29 07:13:27;;;;;;;4.12;1.95;;;;;;;25.76;36.65;99679.94;4375721;32;33468;-64
2023/06/29 07:15:55;;;;;;;6.00;2.15;;;;;;;25.77;36.63;99671.50;4376400;32;33481;-64
2023/06/29 07:18:23;;;;;;;3.53;1.40;;;;;;;25.78;36.65;99669.59;4361404;32;33955;-66
2023/06/29 07:20:50;;;;;;;5.00;2.03;;;;;;;25.79;36.65;99668.53;4374319;32;34069;-63
2023/06/29 07:23:21;;;;;;;5.20;2.05;;;;;;;25.81;36.67;99674.59;4374126;32;33533;-63
2023/06/29 07:25:52;;;;;;;4.43;1.85;;;;;;;25.81;36.69;99675.41;4374139;32;33838;-72
2023/06/29 07:28:20;;;;;;;5.68;2.08;;;;;;;25.84;36.69;99676.84;4360711;32;33801;-64
2023/06/29 07:30:47;;;;;;;4.25;2.08;;;;;;;25.84;36.71;99671.38;4374596;32;34098;-67
2023/06/29 07:33:15;;;;;;;4.35;1.75;;;;;;;25.86;36.71;99674.66;4374919;32;33172;-68
2023/06/29 07:35:43;;;;;;;6.80;2.17;;;;;;;25.86;36.73;99671.94;4375635;32;34034;-64
2023/06/29 07:38:12;;;;;;;6.75;2.20;;;;;;;25.87;36.71;99663.47;4375060;32;33810;-64
2023/06/29 07:40:42;;;;;;;6.70;1.90;;;;;;;25.88;36.74;99667.03;4375474;32;34952;-67
2023/06/29 07:43:10;;;;;;;3.90;2.00;;;;;;;25.87;36.73;99677.16;4358968;32;34136;-66
2023/06/29 07:45:38;;;;;;;5.50;2.00;;;;;;;25.90;36.74;99684.03;4360744;32;34651;-64
2023/06/29 07:48:06;;;;;;;5.57;1.83;;;;;;;25.90;36.75;99675.84;4361044;32;33980;-63
2023/06/29 07:50:33;;;;;;;4.87;1.87;;;;;;;25.91;36.76;99678.31;4362443;32;34466;-67
2023/06/29 07:53:01;;;;;;;4.72;1.98;;;;;;;25.93;36.78;99676.19;4362777;32;34483;-67
2023/06/29 07:55:29;;;;;;;7.80;2.25;;;;;;;25.94;36.79;99674.28;4361395;32;34348;-64
2023/06/29 07:57:56;;;;;;;4.15;1.80;;;;;;;25.95;36.79;99673.19;4362808;32;33559;-64
2023/06/29 08:00:27;;;;;;;4.80;1.80;;;;;;;25.94;36.79;99675.09;4359920;32;33016;-63
2023/06/29 08:02:55;;;;;;;5.00;1.90;;;;;;;25.94;36.79;99672.38;4362510;32;33604;-66
2023/06/29 08:05:23;;;;;;;6.12;2.30;;;;;;;25.96;36.81;99680.31;4362421;32;33988;-71
2023/06/29 08:07:53;;;;;;;4.25;1.75;;;;;;;25.96;36.82;99669.38;4362668;32;34215;-64
2023/06/29 08:10:22;;;;;;;3.60;1.92;;;;;;;25.97;36.81;99673.75;4362510;32;34102;-65
2023/06/29 08:12:51;;;;;;;4.05;1.90;;;;;;;25.97;36.83;99671.03;4362680;32;33942;-67
2023/06/29 08:15:18;;;;;;;3.67;1.70;;;;;;;25.99;36.85;99673.53;4362293;32;34377;-65
2023/06/29 08:17:46;;;;;;;4.40;1.90;;;;;;;25.99;36.86;99673.53;4362461;32;34770;-69
2023/06/29 08:20:14;;;;;;;3.08;1.67;;;;;;;25.99;36.87;99679.84;4362590;32;34294;-66
2023/06/29 08:22:45;;;;;;;5.07;1.92;;;;;;;25.99;36.88;99685.31;4361173;32;32646;-64
2023/06/29 08:25:12;;;;;;;5.00;1.80;;;;;;;26.00;36.89;99684.22;4362007;32;33109;-68
2023/06/29 08:27:41;;;;;;;5.07;1.80;;;;;;;26.01;36.90;99685.03;4362586;32;33916;-64
2023/06/29 08:30:09;;;;;;;4.15;1.77;;;;;;;26.00;36.91;99680.66;4362427;32;34077;-65
2023/06/29 08:32:37;;;;;;;4.90;2.00;;;;;;;26.01;36.91;99682.31;4362319;32;34429;-66
2023/06/29 08:35:05;;;;;;;3.55;1.70;;;;;;;26.02;36.90;99682.09;4362381;32;33945;-65
2023/06/29 08:37:32;;;;;;;4.10;1.60;;;;;;;26.01;36.92;99680.41;4362444;32;33595;-67
2023/06/29 08:40:00;;;;;;;4.45;1.60;;;;;;;26.03;36.93;99682.91;4362236;32;34194;-63
2023/06/29 08:42:28;;;;;;;3.08;1.62;;;;;;;26.02;36.95;99684.81;4361711;32;34361;-63
2023/06/29 08:44:55;;;;;;;4.62;1.65;;;;;;;26.03;36.95;99675.53;4356476;32;33875;-64
2023/06/29 08:47:24;;;;;;;6.00;1.60;;;;;;;26.03;36.95;99672.78;4360862;32;33879;-66
2023/06/29 08:49:54;;;;;;;3.10;1.70;;;;;;;26.04;36.94;99679.91;4343839;32;34809;-64
2023/06/29 08:52:25;;;;;;;2.50;1.23;;;;;;;26.04;36.97;99673.63;4361450;32;33757;-67
2023/06/29 08:54:53;;;;;;;3.75;1.83;;;;;;;26.04;36.98;99660.78;4362317;32;34764;-64
2023/06/29 08:57:20;;;;;;;5.03;2.00;;;;;;;26.06;36.97;99666.81;4358700;32;33922;-65
2023/06/29 08:59:48;;;;;;;3.67;1.45;;;;;;;26.06;36.97;99658.63;4354612;32;34872;-69
2023/06/29 09:02:16;;;;;;;3.35;1.50;;;;;;;26.06;37.00;99658.63;4362225;32;33749;-65
2023/06/29 09:04:44;;;;;;;5.28;1.87;;;;;;;26.06;37.01;99666.81;4355123;32;33632;-66
2023/06/29 09:07:15;;;;;;;2.05;1.40;;;;;;;26.07;37.02;99667.69;4360624;32;33999;-64
2023/06/29 09:09:43;;;;;;;3.15;1.42;;;;;;;26.06;37.03;99675.03;4362286;32;34316;-72
2023/06/29 09:12:11;;;;;;;3.25;1.60;;;;;;;26.07;37.04;99667.69;4362170;32;33717;-67
2023/06/29 09:14:43;;;;;;;3.45;1.45;;;;;;;26.07;37.04;99673.97;4360401;32;32942;-64
2023/06/29 09:17:12;;;;;;;3.10;1.60;;;;;;;26.07;37.07;99673.13;4361939;32;34976;-64
2023/06/29 09:19:44;;;;;;;4.43;1.83;;;;;;;26.08;37.07;99672.06;4348620;32;33730;-70
2023/06/29 09:22:11;;;;;;;4.82;1.90;;;;;;;26.07;37.06;99665.75;4357884;32;34527;-65
2023/06/29 09:24:39;;;;;;;2.87;1.40;;;;;;;26.08;37.08;99666.59;4360989;32;34302;-65
2023/06/29 09:27:27;;;;;;;3.87;1.60;;;;;;;26.08;37.09;99659.22;4359108;32;33574;-70
2023/06/29 09:29:56;;;;;;;4.47;2.05;;;;;;;26.08;37.10;99659.22;4362115;32;34056;-65
2023/06/29 09:32:24;;;;;;;4.75;1.65;;;;;;;26.08;37.12;99661.12;4362121;32;33798;-68
2023/06/29 09:34:51;;;;;;;3.85;1.52;;;;;;;26.10;37.11;99664.44;4355652;32;34821;-71
2023/06/29 09:37:19;;;;;;;4.55;1.92;;;;;;;26.08;37.12;99653.75;4362031;32;33981;-65
2023/06/29 09:39:56;;;;;;;3.03;1.40;;;;;;;26.09;37.14;99658.13;4362037;32;34010;-64
2023/06/29 09:42:26;;;;;;;4.07;1.52;;;;;;;26.11;37.14;99663.34;4361996;32;34207;-64
2023/06/29 09:44:54;;;;;;;3.42;1.60;;;;;;;26.10;37.17;99656.22;4361557;32;33940;-72
2023/06/29 09:47:23;;;;;;;2.53;1.42;;;;;;;26.10;37.19;99659.78;4346412;32;34928;-66
2023/06/29 09:49:54;;;;;;;2.12;1.40;;;;;;;26.09;37.20;99663.59;4344117;32;34150;-65
2023/06/29 09:52:21;;;;;;;3.97;1.62;;;;;;;26.10;37.20;99662.50;4361936;32;33653;-65
2023/06/29 09:54:49;;;;;;;4.65;1.45;;;;;;;26.09;37.21;99658.13;4361883;32;33693;-64
2023/06/29 09:57:17;;;;;;;3.22;1.62;;;;;;;26.10;37.21;99657.03;4362226;32;33814;-65
2023/06/29 09:59:45;;;;;;;3.15;1.60;;;;;;;26.09;37.23;99646.38;4354742;32;34688;-65
2023/06/29 10:02:13;;;;;;;2.90;1.55;;;;;;;26.10;37.24;99665.25;4361506;32;33426;-68
2023/06/29 10:04:41;;;;;;;3.97;1.70;;;;;;;26.10;37.25;99658.94;4361645;32;33971;-67
2023/06/29 10:07:13;;;;;;;2.50;1.52;;;;;;;26.09;37.25;99660.88;4357168;32;33966;-66
2023/06/29 10:09:42;;;;;;;3.42;1.60;;;;;;;26.11;37.27;99657.87;4348425;32;34196;-65
2023/06/29 10:12:10;;;;;;;3.45;1.60;;;;;;;26.11;37.27;99661.47;4361511;32;34312;-64
2023/06/29 10:14:38;;;;;;;2.40;1.37;;;;;;;26.11;37.29;99656.00;4359342;32;34085;-67
2023/06/29 10:17:08;;;;;;;3.10;1.50;;;;;;;26.11;37.30;99658.72;4344682;32;33646;-64
2023/06/29 10:19:39;;;;;;;4.30;1.50;;;;;;;26.10;37.32;99662.50;4361238;32;34426;-64
2023/06/29 10:22:09;;;;;;;3.15;1.58;;;;;;;26.12;37.31;99652.19;4356709;32;33760;-67
2023/06/29 10:24:42;;;;;;;2.75;1.50;;;;;;;26.12;37.34;99648.63;4360603;32;33718;-69
2023/06/29 10:27:09;;;;;;;2.97;1.33;;;;;;;26.11;37.35;99649.66;4345283;32;34660;-64
2023/06/29 10:29:47;;;;;;;3.78;1.40;;;;;;;26.12;37.35;99654.09;4361640;32;34182;-74
2023/06/29 10:32:37;;;;;;;2.00;1.33;;;;;;;26.14;37.34;99652.75;4361696;32;34393;-65
2023/06/29 10:35:05;;;;;;;;;;;;;;;26.14;37.32;99644.53;4361917;32;34646;-74
2023/06/29 10:37:37;;;;;;;2.25;1.30;;;;;;;26.22;37.20;99646.03;4359497;32;35061;-64
2023/06/29 10:40:10;;;;;;;2.53;1.50;;;;;;;26.15;37.37;99651.66;4361676;32;34769;-62
2023/06/29 10:42:38;;;;;;;3.42;1.60;;;;;;;26.13;37.43;99651.09;4361125;32;33183;-73
2023/06/29 10:45:17;;;;;;;2.80;1.60;;;;;;;26.12;37.46;99643.97;4361172;32;33853;-66
2023/06/29 10:47:46;;;;;;;2.95;1.40;;;;;;;26.14;37.45;99647.28;4361546;32;34919;-69
2023/06/29 10:50:13;;;;;;;3.62;1.75;;;;;;;26.13;37.46;99639.31;4357315;32;34423;-74
2023/06/29 10:52:42;;;;;;;2.70;1.50;;;;;;;26.13;37.49;99642.87;4361464;32;33396;-75
2023/06/29 10:55:22;;;;;;;3.83;1.30;;;;;;;26.13;37.51;99647.53;4361117;32;33588;-65
2023/06/29 10:58:14;;;;;;;2.80;1.40;;;;;;;26.15;37.49;99646.19;4342656;32;33108;-70
2023/06/29 11:00:42;;;;;;;2.10;1.30;;;;;;;26.14;37.51;99641.81;4358350;32;34852;-74
2023/06/29 11:03:10;;;;;;;3.67;1.50;;;;;;;26.14;37.51;99646.44;4356618;32;33303;-63
2023/06/29 11:05:38;;;;;;;2.37;1.33;;;;;;;26.15;37.52;99642.63;4360233;32;33975;-73
2023/06/29 11:08:07;;;;;;;2.65;1.37;;;;;;;26.14;37.53;99644.53;4361372;32;33721;-64
2023/06/29 11:10:34;;;;;;;3.20;1.45;;;;;;;26.15;37.54;99642.63;4361242;32;34072;-66
2023/06/29 11:13:06;;;;;;;3.00;1.42;;;;;;;26.15;37.54;99635.25;4361245;32;33769;-74
2023/06/29 11:15:34;;;;;;;3.58;1.20;;;;;;;26.15;37.57;99642.63;4360768;32;33492;-66
2023/06/29 11:18:06;;;;;;;2.30;1.30;;;;;;;26.15;37.55;99635.25;4361142;32;34055;-66
2023/06/29 11:20:36;;;;;;;3.12;1.45;;;;;;;26.14;37.56;99630.88;4360862;32;34331;-74
2023/06/29 11:23:04;;;;;;;2.62;1.45;;;;;;;26.15;37.59;99643.47;4361543;32;33746;-73
2023/06/29 11:25:32;;;;;;;3.28;1.58;;;;;;;26.15;37.59;99634.44;4362963;32;34057;-74
2023/06/29 11:28:00;;;;;;;3.95;1.45;;;;;;;26.16;37.60;99636.94;4362885;32;34916;-66
2023/06/29 11:30:27;;;;;;;1.87;1.20;;;;;;;26.16;37.62;99636.06;4347428;32;34339;-74
2023/06/29 11:32:55;;;;;;;2.40;1.30;;;;;;;26.17;37.61;99643.22;4356881;32;33552;-70
2023/06/29 11:35:23;;;;;;;3.03;1.40;;;;;;;26.17;37.61;99635.03;4361635;32;33837;-66
2023/06/29 11:38:00;;;;;;;3.53;1.30;;;;;;;26.16;37.63;99633.34;4356234;32;33670;-64
2023/06/29 11:40:28;;;;;;;3.28;1.35;;;;;;;26.16;37.65;99634.19;4361353;32;34013;-65